Terminal Aerodrome Forecast
Issued by NWS Chicago, IL

Home | Current Version | Previous Version | Text Only | Print | Product List | Glossary On
Versions: 1 2 3 4 5 6 7 8 9 10 11 12 13 14 15 16 17 18 19 20 21 22 23 24 25 26 27 28 29 30 31 32 33 34
000
FTUS43 KLOT 240838 AAA
TAFRFD
TAF AMD
KRFD 240838Z 2409/2506 30006KT P6SM OVC015
     FM241100 00000KT 4SM BR OVC007
     FM241600 12003KT P6SM OVC015
     FM242000 12008KT P6SM OVC020=

USA.gov is the U.S. government's official web portal to all federal, state and local government web resources and services.